sensor_id;sensor_type;location;lat;lon;timestamp;pressure;altitude;pressure_sealevel;temperature;humidity
47738;BME280;33502;47.182;27.506;2022-12-18T00:00:43;101082.22;;;0.11;100.00
47738;BME280;33502;47.182;27.506;2022-12-18T00:03:09;101085.63;;;0.07;100.00
47738;BME280;33502;47.182;27.506;2022-12-18T00:05:36;101088.25;;;0.07;100.00
47738;BME280;33502;47.182;27.506;2022-12-18T00:08:02;101090.78;;;0.04;100.00
47738;BME280;33502;47.182;27.506;2022-12-18T00:10:28;101094.22;;;-0.01;100.00
47738;BME280;33502;47.182;27.506;2022-12-18T00:12:54;101103.78;;;-0.01;100.00
47738;BME280;33502;47.182;27.506;2022-12-18T00:15:20;101105.31;;;-0.14;100.00
47738;BME280;33502;47.182;27.506;2022-12-18T00:17:46;101120.06;;;-0.14;100.00
47738;BME280;33502;47.182;27.506;2022-12-18T00:20:11;101115.72;;;-0.15;100.00
47738;BME280;33502;47.182;27.506;2022-12-18T00:22:37;101128.63;;;-0.25;100.00
47738;BME280;33502;47.182;27.506;2022-12-18T00:25:03;101139.81;;;-0.29;100.00
47738;BME280;33502;47.182;27.506;2022-12-18T00:27:29;101141.47;;;-0.35;100.00
47738;BME280;33502;47.182;27.506;2022-12-18T00:29:55;101157.94;;;-0.35;100.00
47738;BME280;33502;47.182;27.506;2022-12-18T00:32:20;101162.22;;;-0.38;100.00
47738;BME280;33502;47.182;27.506;2022-12-18T00:34:46;101167.53;;;-0.34;100.00
47738;BME280;33502;47.182;27.506;2022-12-18T00:37:12;101171.00;;;-0.33;100.00
47738;BME280;33502;47.182;27.506;2022-12-18T00:39:37;101171.91;;;-0.30;100.00
47738;BME280;33502;47.182;27.506;2022-12-18T00:42:03;101175.34;;;-0.31;100.00
47738;BME280;33502;47.182;27.506;2022-12-18T00:44:47;101166.66;;;-0.34;100.00
47738;BME280;33502;47.182;27.506;2022-12-18T00:47:13;101174.38;;;-0.39;100.00
47738;BME280;33502;47.182;27.506;2022-12-18T00:49:39;101175.91;;;-0.53;100.00
47738;BME280;33502;47.182;27.506;2022-12-18T00:52:05;101180.06;;;-0.62;100.00
47738;BME280;33502;47.182;27.506;2022-12-18T00:54:30;101173.84;;;-0.71;100.00
47738;BME280;33502;47.182;27.506;2022-12-18T00:56:56;101174.59;;;-0.77;100.00
47738;BME280;33502;47.182;27.506;2022-12-18T00:59:22;101187.53;;;-0.82;100.00
47738;BME280;33502;47.182;27.506;2022-12-18T01:01:49;101188.31;;;-0.87;100.00
47738;BME280;33502;47.182;27.506;2022-12-18T01:04:15;101194.34;;;-0.88;100.00
47738;BME280;33502;47.182;27.506;2022-12-18T01:06:44;101184.72;;;-0.94;100.00
47738;BME280;33502;47.182;27.506;2022-12-18T01:09:10;101194.28;;;-0.93;100.00
47738;BME280;33502;47.182;27.506;2022-12-18T01:11:36;101190.66;;;-1.00;100.00
47738;BME280;33502;47.182;27.506;2022-12-18T01:14:03;101196.66;;;-1.04;100.00
47738;BME280;33502;47.182;27.506;2022-12-18T01:16:29;101188.69;;;-1.14;100.00
47738;BME280;33502;47.182;27.506;2022-12-18T01:18:55;101198.19;;;-1.15;100.00
47738;BME280;33502;47.182;27.506;2022-12-18T01:21:22;101195.50;;;-1.20;100.00
47738;BME280;33502;47.182;27.506;2022-12-18T01:23:55;101191.16;;;-1.22;100.00
47738;BME280;33502;47.182;27.506;2022-12-18T01:26:23;101202.44;;;-1.20;100.00
47738;BME280;33502;47.182;27.506;2022-12-18T01:28:50;101207.69;;;-1.17;100.00
47738;BME280;33502;47.182;27.506;2022-12-18T01:31:22;101218.97;;;-1.15;100.00
47738;BME280;33502;47.182;27.506;2022-12-18T01:33:49;101218.97;;;-1.16;100.00
47738;BME280;33502;47.182;27.506;2022-12-18T01:36:26;101216.31;;;-1.20;100.00
47738;BME280;33502;47.182;27.506;2022-12-18T01:38:52;101224.03;;;-1.24;100.00
47738;BME280;33502;47.182;27.506;2022-12-18T01:41:24;101218.75;;;-1.27;100.00
47738;BME280;33502;47.182;27.506;2022-12-18T01:43:55;101211.78;;;-1.28;100.00
47738;BME280;33502;47.182;27.506;2022-12-18T01:46:23;101218.72;;;-1.29;100.00
47738;BME280;33502;47.182;27.506;2022-12-18T01:48:53;101221.25;;;-1.32;100.00
47738;BME280;33502;47.182;27.506;2022-12-18T01:51:21;101223.00;;;-1.31;100.00
47738;BME280;33502;47.182;27.506;2022-12-18T01:53:47;101226.34;;;-1.36;100.00
47738;BME280;33502;47.182;27.506;2022-12-18T01:56:16;101219.56;;;-1.30;100.00
47738;BME280;33502;47.182;27.506;2022-12-18T01:58:56;101219.59;;;-1.28;100.00
47738;BME280;33502;47.182;27.506;2022-12-18T02:01:25;101217.88;;;-1.28;100.00
47738;BME280;33502;47.182;27.506;2022-12-18T02:03:51;101222.25;;;-1.25;100.00
47738;BME280;33502;47.182;27.506;2022-12-18T02:12:19;101241.38;;;-1.22;100.00
47738;BME280;33502;47.182;27.506;2022-12-18T02:15:11;101231.84;;;-1.21;100.00
47738;BME280;33502;47.182;27.506;2022-12-18T02:17:51;101244.94;;;-1.18;100.00
47738;BME280;33502;47.182;27.506;2022-12-18T02:20:35;101259.63;;;-1.19;100.00
47738;BME280;33502;47.182;27.506;2022-12-18T02:28:26;101262.88;;;-1.29;100.00
47738;BME280;33502;47.182;27.506;2022-12-18T02:30:58;101274.09;;;-1.31;100.00
47738;BME280;33502;47.182;27.506;2022-12-18T02:33:29;101274.03;;;-1.34;100.00
47738;BME280;33502;47.182;27.506;2022-12-18T02:35:57;101278.28;;;-1.38;100.00
47738;BME280;33502;47.182;27.506;2022-12-18T02:38:25;101273.00;;;-1.43;100.00
47738;BME280;33502;47.182;27.506;2022-12-18T02:40:54;101273.81;;;-1.44;100.00
47738;BME280;33502;47.182;27.506;2022-12-18T02:43:21;101285.13;;;-1.42;100.00
47738;BME280;33502;47.182;27.506;2022-12-18T02:45:56;101288.59;;;-1.43;100.00
47738;BME280;33502;47.182;27.506;2022-12-18T02:48:26;101295.50;;;-1.43;100.00
47738;BME280;33502;47.182;27.506;2022-12-18T02:51:08;101289.38;;;-1.45;100.00
47738;BME280;33502;47.182;27.506;2022-12-18T02:53:53;101298.13;;;-1.43;100.00
47738;BME280;33502;47.182;27.506;2022-12-18T02:56:38;101294.66;;;-1.42;100.00
47738;BME280;33502;47.182;27.506;2022-12-18T02:59:19;101300.75;;;-1.40;100.00
47738;BME280;33502;47.182;27.506;2022-12-18T03:02:22;101301.75;;;-1.35;100.00
47738;BME280;33502;47.182;27.506;2022-12-18T03:07:49;101320.06;;;-1.29;100.00
47738;BME280;33502;47.182;27.506;2022-12-18T03:10:20;101317.41;;;-1.30;100.00
47738;BME280;33502;47.182;27.506;2022-12-18T03:12:51;101321.72;;;-1.32;100.00
47738;BME280;33502;47.182;27.506;2022-12-18T03:15:23;101332.13;;;-1.31;100.00
47738;BME280;33502;47.182;27.506;2022-12-18T03:17:59;101325.13;;;-1.35;100.00
47738;BME280;33502;47.182;27.506;2022-12-18T03:20:31;101325.81;;;-1.42;100.00
47738;BME280;33502;47.182;27.506;2022-12-18T03:23:04;101341.34;;;-1.45;100.00
47738;BME280;33502;47.182;27.506;2022-12-18T03:25:33;101339.59;;;-1.46;100.00
47738;BME280;33502;47.182;27.506;2022-12-18T03:28:02;101345.69;;;-1.44;100.00
47738;BME280;33502;47.182;27.506;2022-12-18T03:30:29;101339.50;;;-1.49;100.00
47738;BME280;33502;47.182;27.506;2022-12-18T03:35:47;101343.72;;;-1.56;100.00
47738;BME280;33502;47.182;27.506;2022-12-18T03:38:13;101352.19;;;-1.63;100.00
47738;BME280;33502;47.182;27.506;2022-12-18T03:40:56;101358.97;;;-1.68;100.00
47738;BME280;33502;47.182;27.506;2022-12-18T03:46:08;101361.63;;;-1.67;100.00
47738;BME280;33502;47.182;27.506;2022-12-18T03:48:44;101378.97;;;-1.66;100.00
47738;BME280;33502;47.182;27.506;2022-12-18T03:54:28;101379.03;;;-1.64;100.00
47738;BME280;33502;47.182;27.506;2022-12-18T03:57:07;101379.81;;;-1.67;100.00
47738;BME280;33502;47.182;27.506;2022-12-18T03:59:36;101379.81;;;-1.67;100.00
47738;BME280;33502;47.182;27.506;2022-12-18T04:02:03;101388.63;;;-1.60;100.00
47738;BME280;33502;47.182;27.506;2022-12-18T04:04:31;101393.00;;;-1.58;100.00
47738;BME280;33502;47.182;27.506;2022-12-18T04:07:02;101408.56;;;-1.59;100.00
47738;BME280;33502;47.182;27.506;2022-12-18T04:09:30;101407.66;;;-1.61;100.00
47738;BME280;33502;47.182;27.506;2022-12-18T04:11:57;101412.78;;;-1.63;100.00
47738;BME280;33502;47.182;27.506;2022-12-18T04:14:22;101424.97;;;-1.62;100.00
47738;BME280;33502;47.182;27.506;2022-12-18T04:16:52;101430.09;;;-1.63;100.00
47738;BME280;33502;47.182;27.506;2022-12-18T04:19:23;101430.97;;;-1.64;100.00
47738;BME280;33502;47.182;27.506;2022-12-18T04:21:50;101437.84;;;-1.65;100.00
47738;BME280;33502;47.182;27.506;2022-12-18T04:24:16;101437.91;;;-1.63;100.00
47738;BME280;33502;47.182;27.506;2022-12-18T04:26:52;101438.84;;;-1.60;100.00
47738;BME280;33502;47.182;27.506;2022-12-18T04:29:23;101444.16;;;-1.55;100.00
47738;BME280;33502;47.182;27.506;2022-12-18T04:31:49;101446.72;;;-1.56;100.00
47738;BME280;33502;47.182;27.506;2022-12-18T04:34:15;101459.72;;;-1.55;100.00
47738;BME280;33502;47.182;27.506;2022-12-18T04:36:47;101462.28;;;-1.58;100.00
47738;BME280;33502;47.182;27.506;2022-12-18T04:39:14;101466.81;;;-1.49;100.00
47738;BME280;33502;47.182;27.506;2022-12-18T04:41:41;101464.19;;;-1.51;100.00
47738;BME280;33502;47.182;27.506;2022-12-18T04:44:08;101472.97;;;-1.46;100.00
47738;BME280;33502;47.182;27.506;2022-12-18T04:46:33;101473.81;;;-1.47;100.00
47738;BME280;33502;47.182;27.506;2022-12-18T04:48:59;101476.44;;;-1.45;100.00
47738;BME280;33502;47.182;27.506;2022-12-18T04:51:25;101480.88;;;-1.41;100.00
47738;BME280;33502;47.182;27.506;2022-12-18T04:53:52;101492.06;;;-1.44;100.00
47738;BME280;33502;47.182;27.506;2022-12-18T04:56:18;101492.06;;;-1.44;100.00
47738;BME280;33502;47.182;27.506;2022-12-18T04:58:44;101490.22;;;-1.48;100.00
47738;BME280;33502;47.182;27.506;2022-12-18T05:01:11;101501.34;;;-1.53;100.00
47738;BME280;33502;47.182;27.506;2022-12-18T05:03:38;101511.78;;;-1.52;100.00
47738;BME280;33502;47.182;27.506;2022-12-18T05:06:04;101517.66;;;-1.59;100.00
47738;BME280;33502;47.182;27.506;2022-12-18T05:08:31;101527.88;;;-1.65;100.00
47738;BME280;33502;47.182;27.506;2022-12-18T05:11:11;101526.97;;;-1.67;100.00
47738;BME280;33502;47.182;27.506;2022-12-18T05:13:37;101530.44;;;-1.67;100.00
47738;BME280;33502;47.182;27.506;2022-12-18T05:16:04;101534.00;;;-1.63;100.00
47738;BME280;33502;47.182;27.506;2022-12-18T05:18:31;101535.78;;;-1.61;100.00
47738;BME280;33502;47.182;27.506;2022-12-18T05:20:57;101527.13;;;-1.61;100.00
47738;BME280;33502;47.182;27.506;2022-12-18T05:23:23;101544.44;;;-1.62;100.00
47738;BME280;33502;47.182;27.506;2022-12-18T05:25:54;101548.75;;;-1.62;100.00
47738;BME280;33502;47.182;27.506;2022-12-18T05:28:21;101560.97;;;-1.58;100.00
47738;BME280;33502;47.182;27.506;2022-12-18T05:30:48;101560.97;;;-1.58;100.00
47738;BME280;33502;47.182;27.506;2022-12-18T05:33:15;101559.28;;;-1.56;100.00
47738;BME280;33502;47.182;27.506;2022-12-18T05:35:40;101569.69;;;-1.56;100.00
47738;BME280;33502;47.182;27.506;2022-12-18T05:38:06;101567.91;;;-1.57;100.00
47738;BME280;33502;47.182;27.506;2022-12-18T05:40:32;101578.41;;;-1.54;100.00
47738;BME280;33502;47.182;27.506;2022-12-18T05:42:57;101582.53;;;-1.61;100.00
47738;BME280;33502;47.182;27.506;2022-12-18T05:45:23;101590.47;;;-1.56;100.00
47738;BME280;33502;47.182;27.506;2022-12-18T05:47:49;101594.66;;;-1.61;100.00
47738;BME280;33502;47.182;27.506;2022-12-18T05:50:14;101596.44;;;-1.60;100.00
47738;BME280;33502;47.182;27.506;2022-12-18T05:52:40;101599.03;;;-1.60;100.00
47738;BME280;33502;47.182;27.506;2022-12-18T05:55:06;101602.69;;;-1.52;100.00
47738;BME280;33502;47.182;27.506;2022-12-18T05:57:32;101598.41;;;-1.50;100.00
47738;BME280;33502;47.182;27.506;2022-12-18T05:59:58;101601.03;;;-1.50;100.00
47738;BME280;33502;47.182;27.506;2022-12-18T06:02:24;101612.28;;;-1.49;100.00
47738;BME280;33502;47.182;27.506;2022-12-18T06:04:49;101613.34;;;-1.43;100.00
47738;BME280;33502;47.182;27.506;2022-12-18T06:07:15;101626.41;;;-1.40;100.00
47738;BME280;33502;47.182;27.506;2022-12-18T06:09:41;101632.69;;;-1.31;100.00
47738;BME280;33502;47.182;27.506;2022-12-18T06:12:06;101636.44;;;-1.22;100.00
47738;BME280;33502;47.182;27.506;2022-12-18T06:14:32;101637.44;;;-1.15;100.00
47738;BME280;33502;47.182;27.506;2022-12-18T06:16:58;101650.66;;;-1.07;100.00
47738;BME280;33502;47.182;27.506;2022-12-18T06:19:23;101656.97;;;-0.98;100.00
47738;BME280;33502;47.182;27.506;2022-12-18T06:21:49;101656.25;;;-0.92;100.00
47738;BME280;33502;47.182;27.506;2022-12-18T06:24:15;101653.72;;;-0.89;100.00
47738;BME280;33502;47.182;27.506;2022-12-18T06:26:41;101663.47;;;-0.82;100.00
47738;BME280;33502;47.182;27.506;2022-12-18T06:29:07;101658.22;;;-0.83;100.00
47738;BME280;33502;47.182;27.506;2022-12-18T06:31:32;101658.13;;;-0.86;100.00
47738;BME280;33502;47.182;27.506;2022-12-18T06:33:58;101671.13;;;-0.88;100.00
47738;BME280;33502;47.182;27.506;2022-12-18T06:36:24;101668.50;;;-0.88;100.00
47738;BME280;33502;47.182;27.506;2022-12-18T06:38:50;101672.91;;;-0.85;100.00
47738;BME280;33502;47.182;27.506;2022-12-18T06:41:18;101671.16;;;-0.85;100.00
47738;BME280;33502;47.182;27.506;2022-12-18T06:43:44;101679.06;;;-0.82;100.00
47738;BME280;33502;47.182;27.506;2022-12-18T06:46:10;101679.25;;;-0.74;100.00
47738;BME280;33502;47.182;27.506;2022-12-18T06:48:36;101684.47;;;-0.74;100.00
47738;BME280;33502;47.182;27.506;2022-12-18T06:51:03;101689.72;;;-0.71;100.00
47738;BME280;33502;47.182;27.506;2022-12-18T06:53:29;101666.22;;;-0.75;100.00
47738;BME280;33502;47.182;27.506;2022-12-18T06:56:04;101697.47;;;-0.74;100.00
47738;BME280;33502;47.182;27.506;2022-12-18T06:58:31;101682.69;;;-0.75;100.00
47738;BME280;33502;47.182;27.506;2022-12-18T07:01:01;101690.56;;;-0.72;100.00
47738;BME280;33502;47.182;27.506;2022-12-18T07:03:27;101708.78;;;-0.72;100.00
47738;BME280;33502;47.182;27.506;2022-12-18T07:05:53;101706.13;;;-0.73;100.00
47738;BME280;33502;47.182;27.506;2022-12-18T07:08:18;101715.72;;;-0.71;100.00
47738;BME280;33502;47.182;27.506;2022-12-18T07:10:44;101718.53;;;0.49;100.00
47738;BME280;33502;47.182;27.506;2022-12-18T07:13:10;101700.44;;;1.51;100.00
47738;BME280;33502;47.182;27.506;2022-12-18T07:15:36;101712.34;;;2.51;100.00
47738;BME280;33502;47.182;27.506;2022-12-18T07:18:02;101699.78;;;2.98;100.00
47738;BME280;33502;47.182;27.506;2022-12-18T07:20:28;101733.44;;;3.48;100.00
47738;BME280;33502;47.182;27.506;2022-12-18T07:22:53;101729.03;;;2.63;100.00
47738;BME280;33502;47.182;27.506;2022-12-18T07:25:19;101737.00;;;2.72;100.00
47738;BME280;33502;47.182;27.506;2022-12-18T07:27:45;101747.03;;;1.80;100.00
47738;BME280;33502;47.182;27.506;2022-12-18T07:30:11;101739.72;;;2.15;100.00
47738;BME280;33502;47.182;27.506;2022-12-18T07:32:36;101748.19;;;3.37;100.00
47738;BME280;33502;47.182;27.506;2022-12-18T07:35:02;101749.75;;;4.28;98.76
47738;BME280;33502;47.182;27.506;2022-12-18T07:37:28;101758.59;;;4.47;93.21
47738;BME280;33502;47.182;27.506;2022-12-18T07:39:54;101752.56;;;4.59;93.84
47738;BME280;33502;47.182;27.506;2022-12-18T07:42:20;101757.06;;;4.87;90.53
47738;BME280;33502;47.182;27.506;2022-12-18T07:44:59;101750.13;;;5.05;89.58
47738;BME280;33502;47.182;27.506;2022-12-18T07:47:25;101748.38;;;5.19;87.47
47738;BME280;33502;47.182;27.506;2022-12-18T07:49:51;101754.56;;;5.47;85.36
47738;BME280;33502;47.182;27.506;2022-12-18T07:52:17;101759.88;;;5.97;84.24
47738;BME280;33502;47.182;27.506;2022-12-18T07:54:43;101775.63;;;6.01;81.84
47738;BME280;33502;47.182;27.506;2022-12-18T07:57:09;101787.00;;;5.83;81.37
47738;BME280;33502;47.182;27.506;2022-12-18T07:59:35;101786.97;;;5.57;82.18
47738;BME280;33502;47.182;27.506;2022-12-18T08:02:00;101801.06;;;6.10;80.42
47738;BME280;33502;47.182;27.506;2022-12-18T08:04:26;101800.81;;;4.85;84.01
47738;BME280;33502;47.182;27.506;2022-12-18T08:06:52;101788.28;;;4.38;87.80
47738;BME280;33502;47.182;27.506;2022-12-18T08:09:18;101795.13;;;4.18;88.49
47738;BME280;33502;47.182;27.506;2022-12-18T08:11:44;101804.59;;;3.94;91.50
47738;BME280;33502;47.182;27.506;2022-12-18T08:14:10;101815.00;;;3.04;97.43
47738;BME280;33502;47.182;27.506;2022-12-18T08:16:36;101810.53;;;2.29;100.00
47738;BME280;33502;47.182;27.506;2022-12-18T08:19:02;101819.28;;;1.80;100.00
47738;BME280;33502;47.182;27.506;2022-12-18T08:21:29;101807.13;;;1.33;100.00
47738;BME280;33502;47.182;27.506;2022-12-18T08:23:58;101824.16;;;1.14;100.00
47738;BME280;33502;47.182;27.506;2022-12-18T08:26:25;101815.81;;;0.89;100.00
47738;BME280;33502;47.182;27.506;2022-12-18T08:28:54;101830.50;;;0.84;100.00
47738;BME280;33502;47.182;27.506;2022-12-18T08:31:20;101818.31;;;0.83;100.00
47738;BME280;33502;47.182;27.506;2022-12-18T08:33:49;101815.13;;;0.55;100.00
47738;BME280;33502;47.182;27.506;2022-12-18T08:36:15;101827.91;;;0.45;100.00
47738;BME280;33502;47.182;27.506;2022-12-18T08:38:41;101834.84;;;0.44;100.00
47738;BME280;33502;47.182;27.506;2022-12-18T08:41:09;101834.97;;;0.50;100.00
47738;BME280;33502;47.182;27.506;2022-12-18T08:43:35;101827.47;;;0.64;100.00
47738;BME280;33502;47.182;27.506;2022-12-18T08:46:21;101823.84;;;0.57;100.00
47738;BME280;33502;47.182;27.506;2022-12-18T08:48:48;101813.81;;;0.36;100.00
47738;BME280;33502;47.182;27.506;2022-12-18T08:51:16;101822.38;;;0.32;100.00
47738;BME280;33502;47.182;27.506;2022-12-18T08:53:43;101820.00;;;0.42;100.00
47738;BME280;33502;47.182;27.506;2022-12-18T08:56:10;101815.56;;;0.37;100.00
47738;BME280;33502;47.182;27.506;2022-12-18T08:58:36;101820.69;;;0.34;100.00
47738;BME280;33502;47.182;27.506;2022-12-18T09:01:08;101828.38;;;0.28;100.00
47738;BME280;33502;47.182;27.506;2022-12-18T09:03:35;101830.00;;;0.23;100.00
47738;BME280;33502;47.182;27.506;2022-12-18T09:06:01;101852.31;;;0.12;100.00
47738;BME280;33502;47.182;27.506;2022-12-18T09:08:27;101849.75;;;0.15;100.00
47738;BME280;33502;47.182;27.506;2022-12-18T09:10:53;101849.56;;;0.07;100.00
47738;BME280;33502;47.182;27.506;2022-12-18T09:13:19;101849.56;;;0.07;100.00
47738;BME280;33502;47.182;27.506;2022-12-18T09:15:52;101858.09;;;0.00;100.00
47738;BME280;33502;47.182;27.506;2022-12-18T09:18:19;101862.38;;;-0.02;100.00
47738;BME280;33502;47.182;27.506;2022-12-18T09:20:45;101860.53;;;-0.06;100.00
47738;BME280;33502;47.182;27.506;2022-12-18T09:23:12;101854.25;;;-0.14;100.00
47738;BME280;33502;47.182;27.506;2022-12-18T09:25:38;101853.25;;;-0.20;100.00
47738;BME280;33502;47.182;27.506;2022-12-18T09:28:13;101857.41;;;-0.26;100.00
47738;BME280;33502;47.182;27.506;2022-12-18T09:30:43;101863.47;;;-0.27;100.00
47738;BME280;33502;47.182;27.506;2022-12-18T09:33:09;101877.28;;;-0.30;100.00
47738;BME280;33502;47.182;27.506;2022-12-18T09:35:39;101891.06;;;-0.34;100.00
47738;BME280;33502;47.182;27.506;2022-12-18T09:38:05;101885.69;;;-0.40;100.00
47738;BME280;33502;47.182;27.506;2022-12-18T09:40:56;101885.75;;;-0.37;100.00
47738;BME280;33502;47.182;27.506;2022-12-18T09:43:36;101890.09;;;-0.37;100.00
47738;BME280;33502;47.182;27.506;2022-12-18T09:46:17;101889.94;;;-0.42;100.00
47738;BME280;33502;47.182;27.506;2022-12-18T09:48:48;101900.34;;;-0.44;100.00
47738;BME280;33502;47.182;27.506;2022-12-18T09:51:19;101895.25;;;-0.39;100.00
47738;BME280;33502;47.182;27.506;2022-12-18T09:53:51;101901.97;;;-0.47;100.00
47738;BME280;33502;47.182;27.506;2022-12-18T09:56:19;101898.44;;;-0.49;100.00
47738;BME280;33502;47.182;27.506;2022-12-18T09:58:59;101898.50;;;-0.48;100.00
47738;BME280;33502;47.182;27.506;2022-12-18T10:01:26;101885.44;;;-0.49;100.00
47738;BME280;33502;47.182;27.506;2022-12-18T10:03:53;101887.31;;;-0.44;100.00
47738;BME280;33502;47.182;27.506;2022-12-18T10:12:09;101898.63;;;-0.43;100.00
47738;BME280;33502;47.182;27.506;2022-12-18T10:20:41;101918.91;;;-0.62;100.00
47738;BME280;33502;47.182;27.506;2022-12-18T10:23:23;101921.56;;;-0.60;100.00
47738;BME280;33502;47.182;27.506;2022-12-18T10:26:06;101930.34;;;-0.56;100.00
47738;BME280;33502;47.182;27.506;2022-12-18T10:28:37;101937.38;;;-0.52;100.00
47738;BME280;33502;47.182;27.506;2022-12-18T10:31:23;101936.28;;;-0.61;100.00
47738;BME280;33502;47.182;27.506;2022-12-18T10:33:49;101936.34;;;-0.59;100.00
47738;BME280;33502;47.182;27.506;2022-12-18T10:36:15;101933.69;;;-0.61;100.00
47738;BME280;33502;47.182;27.506;2022-12-18T10:38:42;101950.06;;;-0.65;100.00
47738;BME280;33502;47.182;27.506;2022-12-18T10:44:14;101935.19;;;-0.69;100.00
47738;BME280;33502;47.182;27.506;2022-12-18T10:46:41;101933.59;;;-0.64;100.00
47738;BME280;33502;47.182;27.506;2022-12-18T10:49:18;101935.22;;;-0.67;100.00
47738;BME280;33502;47.182;27.506;2022-12-18T10:51:45;101955.16;;;-0.68;100.00
47738;BME280;33502;47.182;27.506;2022-12-18T10:54:20;101939.41;;;-0.72;100.00
47738;BME280;33502;47.182;27.506;2022-12-18T10:56:47;101952.50;;;-0.69;100.00
47738;BME280;33502;47.182;27.506;2022-12-18T10:59:16;101955.28;;;-0.63;100.00
47738;BME280;33502;47.182;27.506;2022-12-18T11:01:50;101956.06;;;-0.66;100.00
47738;BME280;33502;47.182;27.506;2022-12-18T11:04:24;101951.72;;;-0.67;100.00
47738;BME280;33502;47.182;27.506;2022-12-18T11:09:25;101943.00;;;-0.69;100.00
47738;BME280;33502;47.182;27.506;2022-12-18T11:11:53;101951.72;;;-0.67;100.00
47738;BME280;33502;47.182;27.506;2022-12-18T11:14:24;101958.84;;;-0.60;100.00
47738;BME280;33502;47.182;27.506;2022-12-18T11:16:51;101965.91;;;-0.55;100.00
47738;BME280;33502;47.182;27.506;2022-12-18T11:21:48;101971.22;;;-0.52;100.00
47738;BME280;33502;47.182;27.506;2022-12-18T11:24:32;101963.47;;;-0.51;100.00
47738;BME280;33502;47.182;27.506;2022-12-18T11:27:00;101974.47;;;-0.60;100.00
47738;BME280;33502;47.182;27.506;2022-12-18T11:29:32;101985.72;;;-0.61;100.00
47738;BME280;33502;47.182;27.506;2022-12-18T11:34:42;101987.69;;;-0.52;100.00
47738;BME280;33502;47.182;27.506;2022-12-18T11:37:12;101986.66;;;-0.58;100.00
47738;BME280;33502;47.182;27.506;2022-12-18T11:39:45;101988.97;;;-0.68;100.00
47738;BME280;33502;47.182;27.506;2022-12-18T11:42:21;101996.59;;;-0.74;100.00
47738;BME280;33502;47.182;27.506;2022-12-18T11:44:57;102002.16;;;-0.62;100.00
47738;BME280;33502;47.182;27.506;2022-12-18T11:47:44;101994.97;;;-0.70;100.00
47738;BME280;33502;47.182;27.506;2022-12-18T11:52:59;102009.91;;;-0.65;100.00
47738;BME280;33502;47.182;27.506;2022-12-18T11:55:37;102008.06;;;-0.67;100.00
47738;BME280;33502;47.182;27.506;2022-12-18T11:58:32;102009.72;;;-0.69;100.00
47738;BME280;33502;47.182;27.506;2022-12-18T12:01:40;102014.06;;;-0.70;100.00
47738;BME280;33502;47.182;27.506;2022-12-18T12:04:39;102020.19;;;-0.68;100.00
47738;BME280;33502;47.182;27.506;2022-12-18T12:07:23;102021.75;;;-0.73;100.00
47738;BME280;33502;47.182;27.506;2022-12-18T12:18:05;102035.44;;;-0.80;100.00
47738;BME280;33502;47.182;27.506;2022-12-18T12:21:15;102035.50;;;-0.77;100.00
47738;BME280;33502;47.182;27.506;2022-12-18T12:40:14;102048.44;;;-0.80;100.00
47738;BME280;33502;47.182;27.506;2022-12-18T12:42:54;102055.44;;;-0.77;100.00
47738;BME280;33502;47.182;27.506;2022-12-18T12:45:55;102057.19;;;-0.78;100.00
47738;BME280;33502;47.182;27.506;2022-12-18T12:48:48;102043.88;;;-0.87;100.00
47738;BME280;33502;47.182;27.506;2022-12-18T12:51:25;102064.31;;;-0.98;100.00
47738;BME280;33502;47.182;27.506;2022-12-18T12:53:53;102066.88;;;-1.00;100.00
47738;BME280;33502;47.182;27.506;2022-12-18T12:56:20;102071.81;;;-1.07;100.00
47738;BME280;33502;47.182;27.506;2022-12-18T12:58:58;102077.19;;;-1.03;100.00
47738;BME280;33502;47.182;27.506;2022-12-18T13:01:43;102076.44;;;-0.99;100.00
47738;BME280;33502;47.182;27.506;2022-12-18T13:07:14;102084.81;;;-1.07;100.00
47738;BME280;33502;47.182;27.506;2022-12-18T13:12:56;102085.56;;;-1.11;100.00
47738;BME280;33502;47.182;27.506;2022-12-18T13:17:48;102087.34;;;-1.10;100.00
47738;BME280;33502;47.182;27.506;2022-12-18T13:20:15;102094.16;;;-1.14;100.00
47738;BME280;33502;47.182;27.506;2022-12-18T13:22:46;102097.72;;;-1.10;100.00
47738;BME280;33502;47.182;27.506;2022-12-18T13:25:36;102104.63;;;-1.11;100.00
47738;BME280;33502;47.182;27.506;2022-12-18T13:38:41;102129.66;;;-1.14;100.00
47738;BME280;33502;47.182;27.506;2022-12-18T13:43:46;102122.56;;;-1.19;100.00
47738;BME280;33502;47.182;27.506;2022-12-18T13:51:46;102143.22;;;-1.23;100.00
47738;BME280;33502;47.182;27.506;2022-12-18T13:54:33;102151.75;;;-1.27;100.00
47738;BME280;33502;47.182;27.506;2022-12-18T13:57:01;102147.53;;;-1.24;100.00
47738;BME280;33502;47.182;27.506;2022-12-18T13:59:38;102154.47;;;-1.24;100.00
47738;BME280;33502;47.182;27.506;2022-12-18T14:02:21;102153.66;;;-1.22;100.00
47738;BME280;33502;47.182;27.506;2022-12-18T14:04:48;102154.22;;;-1.30;100.00
47738;BME280;33502;47.182;27.506;2022-12-18T14:07:17;102149.88;;;-1.31;100.00
47738;BME280;33502;47.182;27.506;2022-12-18T14:09:57;102157.72;;;-1.30;100.00
47738;BME280;33502;47.182;27.506;2022-12-18T14:12:30;102156.94;;;-1.27;100.00
47738;BME280;33502;47.182;27.506;2022-12-18T14:15:31;102152.25;;;-1.38;100.00
47738;BME280;33502;47.182;27.506;2022-12-18T14:20:47;102158.13;;;-1.43;100.00
47738;BME280;33502;47.182;27.506;2022-12-18T14:23:30;102178.13;;;-1.41;100.00
47738;BME280;33502;47.182;27.506;2022-12-18T14:25:56;102168.38;;;-1.46;100.00
47738;BME280;33502;47.182;27.506;2022-12-18T14:28:22;102169.19;;;-1.49;100.00
47738;BME280;33502;47.182;27.506;2022-12-18T14:30:48;102174.41;;;-1.47;100.00